Aérodrome :
LOGIN :

S'inscrire | Disclaimer

   EN    FR    IT 

 










Légende :    VFR   VFR Marginal   IFR   IFR Intensif   IFR Très Intensif
Visi : 
Plafond : 
>= 8 km
>= 3000ft
5 à 8 km
1000 à 3000 ft
1500m à 5 km
500 à 1000 ft
800 à 1500m
200 à 500 ft
< 800m
< 200 ft
Symboles :   Orages  Brouillard  Fortes neiges  Fortes précipitations  Vent > 20 kt
SIGMETs :   Divers  Orages  Givrage  Turbulence  Onde Orograph.  Cendres Volcan.






- Altitude de l'aérodrome : 204 ft
- Code IATA : AGF


LFBA - Agen

DERNIER METAR :
  • 211630Z AUTO 26011KT 9999 FEW038 SCT090 18/11 Q1014 NOSIG

METARs EXPIRÉS :
  • 211600Z AUTO 27012KT 230V300 9999 SCT038/// BKN045/// ///CB 20/12 Q1013 BECMG SCT030 BKN060
  • 211530Z AUTO 26008KT 220V310 9999 SCT041/// BKN060/// ///CB 19/12 Q1013 BECMG SCT030 BKN060
  • 211500Z AUTO 25008KT 220V280 9999 FEW039/// SCT096/// ///CB 18/13 Q1013 BECMG SCT030 BKN060
  • 211430Z AUTO 26008KT 230V290 9999 ///CB 17/14 Q1013 TEMPO 30015G27KT 4000 SHRA BECMG SCT030 BKN060
  • 211400Z AUTO 25004KT 9999 FEW038/// SCT058/// BKN086/// ///CB 16/14 Q1013 TEMPO 30015G27KT 4000 SHRA
  • 211330Z AUTO 29012KT 6000 -RA FEW025/// BKN039/// BKN049/// //////CB 15/13 Q1013 TEMPO 23012G25KT
  • 211300Z AUTO 27015G27KT 210V320 9999 3300 RA FEW026/// BKN033/// BKN048/// ///CB 15/11 Q1013 TEMPO NSW
  • 211230Z AUTO 24012KT 190V280 9999 FEW026/// SCT047/// ///CB 18/12 Q1013 NOSIG
  • 211200Z AUTO 24011KT 210V270 9999 SCT031/// SCT039/// ///CB 18/12 Q1013 NOSIG

TAF TAF LFBA
Valide du 21 à 15h jusqu'au 22 à 00h UTC


211400Z 2115/2124 26010KT 9999 SCT030 BKN060
PROB30
TEMPO 2115/2116 -SHRA SCT025CB BKN035
BECMG 2121/2123 24005KT CAVOK



MET'MAP, la Météo Aéronautique d'un coup d'oeil ! - Copyright ORBIFLY Décembre 2007 - Disclaimer

ORBIFLY MET'MAP TEAM :

Programmation & Développement : Alexandra Zaïnal
Sur une idée originale de : Baudouin d'Aumeries
Soutien technique & logistique : Manuel Goepfert
Assistance : Marc-Olivier Méhu




SOURCES & CREDITS :

   NOAA